sensor_id;sensor_type;location;lat;lon;timestamp;P1;durP1;ratioP1;P2;durP2;ratioP2
41903;SDS011;27586;51.124;4.182;2023-05-29T00:00:04;10.52;;;7.43;;
41903;SDS011;27586;51.124;4.182;2023-05-29T00:02:32;12.52;;;7.38;;
41903;SDS011;27586;51.124;4.182;2023-05-29T00:04:59;11.50;;;7.28;;
41903;SDS011;27586;51.124;4.182;2023-05-29T00:07:28;11.45;;;6.72;;
41903;SDS011;27586;51.124;4.182;2023-05-29T00:09:54;10.38;;;7.10;;
41903;SDS011;27586;51.124;4.182;2023-05-29T00:12:20;8.73;;;6.40;;
41903;SDS011;27586;51.124;4.182;2023-05-29T00:14:47;9.50;;;6.53;;
41903;SDS011;27586;51.124;4.182;2023-05-29T00:17:14;9.98;;;7.10;;
41903;SDS011;27586;51.124;4.182;2023-05-29T00:19:40;9.85;;;7.00;;
41903;SDS011;27586;51.124;4.182;2023-05-29T00:22:06;9.25;;;6.82;;
41903;SDS011;27586;51.124;4.182;2023-05-29T00:24:32;9.05;;;6.25;;
41903;SDS011;27586;51.124;4.182;2023-05-29T00:26:58;10.80;;;7.32;;
41903;SDS011;27586;51.124;4.182;2023-05-29T00:29:23;10.48;;;5.93;;
41903;SDS011;27586;51.124;4.182;2023-05-29T00:31:49;8.82;;;6.25;;
41903;SDS011;27586;51.124;4.182;2023-05-29T00:34:18;9.10;;;6.05;;
41903;SDS011;27586;51.124;4.182;2023-05-29T00:36:48;7.40;;;6.10;;
41903;SDS011;27586;51.124;4.182;2023-05-29T00:39:14;9.10;;;6.47;;
41903;SDS011;27586;51.124;4.182;2023-05-29T00:41:40;10.73;;;6.38;;
41903;SDS011;27586;51.124;4.182;2023-05-29T00:44:06;12.07;;;6.18;;
41903;SDS011;27586;51.124;4.182;2023-05-29T00:46:32;10.50;;;6.28;;
41903;SDS011;27586;51.124;4.182;2023-05-29T00:49:00;10.52;;;5.80;;
41903;SDS011;27586;51.124;4.182;2023-05-29T00:51:26;10.45;;;6.18;;
41903;SDS011;27586;51.124;4.182;2023-05-29T00:53:54;12.98;;;6.25;;
41903;SDS011;27586;51.124;4.182;2023-05-29T00:56:20;9.10;;;6.38;;
41903;SDS011;27586;51.124;4.182;2023-05-29T00:58:48;10.52;;;6.30;;
41903;SDS011;27586;51.124;4.182;2023-05-29T01:01:16;11.38;;;6.05;;
41903;SDS011;27586;51.124;4.182;2023-05-29T01:03:43;9.48;;;6.05;;
41903;SDS011;27586;51.124;4.182;2023-05-29T01:06:10;10.13;;;5.47;;
41903;SDS011;27586;51.124;4.182;2023-05-29T01:08:36;12.27;;;5.13;;
41903;SDS011;27586;51.124;4.182;2023-05-29T01:13:46;7.50;;;4.53;;
41903;SDS011;27586;51.124;4.182;2023-05-29T01:16:21;8.10;;;4.55;;
41903;SDS011;27586;51.124;4.182;2023-05-29T01:18:51;8.52;;;4.68;;
41903;SDS011;27586;51.124;4.182;2023-05-29T01:24:37;10.52;;;4.15;;
41903;SDS011;27586;51.124;4.182;2023-05-29T01:27:13;11.68;;;4.63;;
41903;SDS011;27586;51.124;4.182;2023-05-29T01:29:42;8.10;;;4.22;;
41903;SDS011;27586;51.124;4.182;2023-05-29T01:32:09;8.45;;;3.60;;
41903;SDS011;27586;51.124;4.182;2023-05-29T01:34:36;9.30;;;4.40;;
41903;SDS011;27586;51.124;4.182;2023-05-29T01:37:01;10.95;;;3.85;;
41903;SDS011;27586;51.124;4.182;2023-05-29T01:39:27;13.55;;;4.05;;
41903;SDS011;27586;51.124;4.182;2023-05-29T01:41:54;7.38;;;3.67;;
41903;SDS011;27586;51.124;4.182;2023-05-29T01:44:20;9.80;;;4.38;;
41903;SDS011;27586;51.124;4.182;2023-05-29T01:46:48;7.82;;;3.65;;
41903;SDS011;27586;51.124;4.182;2023-05-29T01:49:14;9.70;;;3.63;;
41903;SDS011;27586;51.124;4.182;2023-05-29T01:51:41;11.20;;;3.50;;
41903;SDS011;27586;51.124;4.182;2023-05-29T01:54:07;9.27;;;3.80;;
41903;SDS011;27586;51.124;4.182;2023-05-29T01:56:33;12.75;;;3.70;;
41903;SDS011;27586;51.124;4.182;2023-05-29T01:59:03;5.75;;;3.40;;
41903;SDS011;27586;51.124;4.182;2023-05-29T02:01:31;9.00;;;3.95;;
41903;SDS011;27586;51.124;4.182;2023-05-29T02:03:57;7.15;;;3.40;;
41903;SDS011;27586;51.124;4.182;2023-05-29T02:06:22;9.30;;;3.67;;
41903;SDS011;27586;51.124;4.182;2023-05-29T02:08:48;12.57;;;4.00;;
41903;SDS011;27586;51.124;4.182;2023-05-29T02:11:14;7.38;;;3.42;;
41903;SDS011;27586;51.124;4.182;2023-05-29T02:13:39;7.85;;;4.18;;
41903;SDS011;27586;51.124;4.182;2023-05-29T02:16:06;11.32;;;3.65;;
41903;SDS011;27586;51.124;4.182;2023-05-29T02:18:32;11.00;;;3.65;;
41903;SDS011;27586;51.124;4.182;2023-05-29T02:20:59;9.82;;;3.67;;
41903;SDS011;27586;51.124;4.182;2023-05-29T02:23:25;9.75;;;3.20;;
41903;SDS011;27586;51.124;4.182;2023-05-29T02:25:51;10.48;;;3.90;;
41903;SDS011;27586;51.124;4.182;2023-05-29T02:28:17;10.23;;;3.58;;
41903;SDS011;27586;51.124;4.182;2023-05-29T02:30:42;8.55;;;3.08;;
41903;SDS011;27586;51.124;4.182;2023-05-29T02:33:08;10.88;;;3.88;;
41903;SDS011;27586;51.124;4.182;2023-05-29T02:35:33;8.75;;;3.38;;
41903;SDS011;27586;51.124;4.182;2023-05-29T02:37:59;8.48;;;3.38;;
41903;SDS011;27586;51.124;4.182;2023-05-29T02:40:25;9.07;;;3.47;;
41903;SDS011;27586;51.124;4.182;2023-05-29T02:42:50;9.82;;;3.80;;
41903;SDS011;27586;51.124;4.182;2023-05-29T02:45:16;10.00;;;3.33;;
41903;SDS011;27586;51.124;4.182;2023-05-29T02:47:42;12.85;;;3.08;;
41903;SDS011;27586;51.124;4.182;2023-05-29T02:50:08;10.32;;;3.45;;
41903;SDS011;27586;51.124;4.182;2023-05-29T02:52:34;7.82;;;3.40;;
41903;SDS011;27586;51.124;4.182;2023-05-29T02:55:01;7.95;;;3.58;;
41903;SDS011;27586;51.124;4.182;2023-05-29T02:57:29;9.45;;;3.50;;
41903;SDS011;27586;51.124;4.182;2023-05-29T02:59:54;11.10;;;3.60;;
41903;SDS011;27586;51.124;4.182;2023-05-29T03:02:20;8.02;;;3.28;;
41903;SDS011;27586;51.124;4.182;2023-05-29T03:04:45;7.78;;;3.15;;
41903;SDS011;27586;51.124;4.182;2023-05-29T03:07:11;9.85;;;3.88;;
41903;SDS011;27586;51.124;4.182;2023-05-29T03:09:37;9.10;;;3.60;;
41903;SDS011;27586;51.124;4.182;2023-05-29T03:12:03;8.52;;;3.70;;
41903;SDS011;27586;51.124;4.182;2023-05-29T03:14:29;10.88;;;3.95;;
41903;SDS011;27586;51.124;4.182;2023-05-29T03:16:55;7.28;;;2.90;;
41903;SDS011;27586;51.124;4.182;2023-05-29T03:19:21;8.35;;;3.42;;
41903;SDS011;27586;51.124;4.182;2023-05-29T03:21:47;11.27;;;3.72;;
41903;SDS011;27586;51.124;4.182;2023-05-29T03:24:12;10.55;;;3.85;;
41903;SDS011;27586;51.124;4.182;2023-05-29T03:26:41;8.60;;;3.70;;
41903;SDS011;27586;51.124;4.182;2023-05-29T03:29:07;8.10;;;3.63;;
41903;SDS011;27586;51.124;4.182;2023-05-29T03:31:33;9.70;;;3.70;;
41903;SDS011;27586;51.124;4.182;2023-05-29T03:33:59;12.07;;;3.60;;
41903;SDS011;27586;51.124;4.182;2023-05-29T03:36:25;10.02;;;3.65;;
41903;SDS011;27586;51.124;4.182;2023-05-29T03:38:51;9.23;;;3.70;;
41903;SDS011;27586;51.124;4.182;2023-05-29T03:41:17;7.95;;;3.33;;
41903;SDS011;27586;51.124;4.182;2023-05-29T03:43:43;9.82;;;3.33;;
41903;SDS011;27586;51.124;4.182;2023-05-29T03:46:08;12.02;;;3.88;;
41903;SDS011;27586;51.124;4.182;2023-05-29T03:48:34;8.40;;;3.35;;
41903;SDS011;27586;51.124;4.182;2023-05-29T03:50:59;13.23;;;3.75;;
41903;SDS011;27586;51.124;4.182;2023-05-29T03:53:25;9.88;;;3.60;;
41903;SDS011;27586;51.124;4.182;2023-05-29T03:55:51;11.73;;;3.50;;
41903;SDS011;27586;51.124;4.182;2023-05-29T03:58:16;8.00;;;3.47;;
41903;SDS011;27586;51.124;4.182;2023-05-29T04:00:42;11.43;;;3.72;;
41903;SDS011;27586;51.124;4.182;2023-05-29T04:03:08;12.27;;;3.40;;
41903;SDS011;27586;51.124;4.182;2023-05-29T04:05:33;10.25;;;3.90;;
41903;SDS011;27586;51.124;4.182;2023-05-29T04:07:59;12.32;;;4.03;;
41903;SDS011;27586;51.124;4.182;2023-05-29T04:10:26;11.23;;;4.22;;
41903;SDS011;27586;51.124;4.182;2023-05-29T04:12:51;11.45;;;3.80;;
41903;SDS011;27586;51.124;4.182;2023-05-29T04:15:17;11.98;;;4.03;;
41903;SDS011;27586;51.124;4.182;2023-05-29T04:17:43;10.88;;;3.85;;
41903;SDS011;27586;51.124;4.182;2023-05-29T04:20:08;10.23;;;3.63;;
41903;SDS011;27586;51.124;4.182;2023-05-29T04:22:37;11.23;;;3.33;;
41903;SDS011;27586;51.124;4.182;2023-05-29T04:25:04;10.32;;;4.03;;
41903;SDS011;27586;51.124;4.182;2023-05-29T04:27:30;12.07;;;4.10;;
41903;SDS011;27586;51.124;4.182;2023-05-29T04:29:57;10.65;;;3.42;;
41903;SDS011;27586;51.124;4.182;2023-05-29T04:32:23;11.15;;;3.97;;
41903;SDS011;27586;51.124;4.182;2023-05-29T04:34:49;12.02;;;3.90;;
41903;SDS011;27586;51.124;4.182;2023-05-29T04:37:16;8.70;;;3.60;;
41903;SDS011;27586;51.124;4.182;2023-05-29T04:39:42;10.20;;;3.65;;
41903;SDS011;27586;51.124;4.182;2023-05-29T04:42:08;11.85;;;3.72;;
41903;SDS011;27586;51.124;4.182;2023-05-29T04:44:33;9.52;;;3.80;;
41903;SDS011;27586;51.124;4.182;2023-05-29T04:46:59;11.38;;;4.38;;
41903;SDS011;27586;51.124;4.182;2023-05-29T04:49:28;10.75;;;3.90;;
41903;SDS011;27586;51.124;4.182;2023-05-29T04:51:54;14.23;;;3.67;;
41903;SDS011;27586;51.124;4.182;2023-05-29T04:54:21;15.05;;;4.22;;
41903;SDS011;27586;51.124;4.182;2023-05-29T04:56:47;9.45;;;3.00;;
41903;SDS011;27586;51.124;4.182;2023-05-29T04:59:13;9.82;;;3.25;;
41903;SDS011;27586;51.124;4.182;2023-05-29T05:01:39;12.18;;;3.47;;
41903;SDS011;27586;51.124;4.182;2023-05-29T05:04:08;10.32;;;3.88;;
41903;SDS011;27586;51.124;4.182;2023-05-29T05:06:34;8.75;;;3.15;;
41903;SDS011;27586;51.124;4.182;2023-05-29T05:09:00;14.57;;;4.10;;
41903;SDS011;27586;51.124;4.182;2023-05-29T05:11:26;10.85;;;3.75;;
41903;SDS011;27586;51.124;4.182;2023-05-29T05:13:51;11.30;;;3.55;;
41903;SDS011;27586;51.124;4.182;2023-05-29T05:16:17;10.32;;;3.65;;
41903;SDS011;27586;51.124;4.182;2023-05-29T05:18:43;12.52;;;3.97;;
41903;SDS011;27586;51.124;4.182;2023-05-29T05:21:09;11.55;;;4.30;;
41903;SDS011;27586;51.124;4.182;2023-05-29T05:23:35;11.77;;;4.07;;
41903;SDS011;27586;51.124;4.182;2023-05-29T05:26:01;10.48;;;3.58;;
41903;SDS011;27586;51.124;4.182;2023-05-29T05:28:27;9.52;;;3.50;;
41903;SDS011;27586;51.124;4.182;2023-05-29T05:30:53;13.13;;;3.70;;
41903;SDS011;27586;51.124;4.182;2023-05-29T05:33:18;10.73;;;4.20;;
41903;SDS011;27586;51.124;4.182;2023-05-29T05:35:44;8.63;;;3.17;;
41903;SDS011;27586;51.124;4.182;2023-05-29T05:38:10;8.05;;;2.72;;
41903;SDS011;27586;51.124;4.182;2023-05-29T05:40:36;9.65;;;3.53;;
41903;SDS011;27586;51.124;4.182;2023-05-29T05:43:02;8.95;;;3.45;;
41903;SDS011;27586;51.124;4.182;2023-05-29T05:45:27;9.48;;;3.33;;
41903;SDS011;27586;51.124;4.182;2023-05-29T05:47:53;10.88;;;3.17;;
41903;SDS011;27586;51.124;4.182;2023-05-29T05:50:18;9.25;;;3.17;;
41903;SDS011;27586;51.124;4.182;2023-05-29T05:52:46;15.20;;;3.80;;
41903;SDS011;27586;51.124;4.182;2023-05-29T05:55:11;9.48;;;3.05;;
41903;SDS011;27586;51.124;4.182;2023-05-29T05:57:37;13.50;;;3.45;;
41903;SDS011;27586;51.124;4.182;2023-05-29T06:00:03;11.38;;;3.65;;
41903;SDS011;27586;51.124;4.182;2023-05-29T06:02:38;9.35;;;3.83;;
41903;SDS011;27586;51.124;4.182;2023-05-29T06:05:07;9.95;;;3.28;;
41903;SDS011;27586;51.124;4.182;2023-05-29T06:07:34;11.15;;;3.30;;
41903;SDS011;27586;51.124;4.182;2023-05-29T06:10:00;9.13;;;3.60;;
41903;SDS011;27586;51.124;4.182;2023-05-29T06:12:26;11.63;;;3.17;;
41903;SDS011;27586;51.124;4.182;2023-05-29T06:14:52;7.28;;;2.97;;
41903;SDS011;27586;51.124;4.182;2023-05-29T06:17:18;12.20;;;3.60;;
41903;SDS011;27586;51.124;4.182;2023-05-29T06:19:43;11.25;;;3.22;;
41903;SDS011;27586;51.124;4.182;2023-05-29T06:22:09;7.43;;;3.05;;
41903;SDS011;27586;51.124;4.182;2023-05-29T06:24:34;8.50;;;2.95;;
41903;SDS011;27586;51.124;4.182;2023-05-29T06:27:00;10.73;;;3.13;;
41903;SDS011;27586;51.124;4.182;2023-05-29T06:29:26;8.63;;;3.47;;
41903;SDS011;27586;51.124;4.182;2023-05-29T06:31:52;11.35;;;2.90;;
41903;SDS011;27586;51.124;4.182;2023-05-29T06:34:17;11.95;;;3.00;;
41903;SDS011;27586;51.124;4.182;2023-05-29T06:36:43;9.07;;;3.17;;
41903;SDS011;27586;51.124;4.182;2023-05-29T06:39:09;9.98;;;3.30;;
41903;SDS011;27586;51.124;4.182;2023-05-29T06:41:35;8.63;;;3.30;;
41903;SDS011;27586;51.124;4.182;2023-05-29T06:44:01;8.77;;;3.28;;
41903;SDS011;27586;51.124;4.182;2023-05-29T06:46:26;8.85;;;2.88;;
41903;SDS011;27586;51.124;4.182;2023-05-29T06:48:52;9.40;;;3.13;;
41903;SDS011;27586;51.124;4.182;2023-05-29T06:51:17;11.38;;;3.30;;
41903;SDS011;27586;51.124;4.182;2023-05-29T06:53:43;9.82;;;3.25;;
41903;SDS011;27586;51.124;4.182;2023-05-29T06:56:09;8.00;;;3.40;;
41903;SDS011;27586;51.124;4.182;2023-05-29T06:58:34;7.60;;;2.92;;
41903;SDS011;27586;51.124;4.182;2023-05-29T07:01:00;9.25;;;3.08;;
41903;SDS011;27586;51.124;4.182;2023-05-29T07:03:26;8.30;;;3.05;;
41903;SDS011;27586;51.124;4.182;2023-05-29T07:05:52;8.70;;;2.92;;
41903;SDS011;27586;51.124;4.182;2023-05-29T07:08:18;10.50;;;3.00;;
41903;SDS011;27586;51.124;4.182;2023-05-29T07:10:44;8.48;;;3.10;;
41903;SDS011;27586;51.124;4.182;2023-05-29T07:13:13;7.68;;;2.83;;
41903;SDS011;27586;51.124;4.182;2023-05-29T07:15:40;7.70;;;3.00;;
41903;SDS011;27586;51.124;4.182;2023-05-29T07:18:05;12.60;;;3.30;;
41903;SDS011;27586;51.124;4.182;2023-05-29T07:20:31;8.68;;;2.75;;
41903;SDS011;27586;51.124;4.182;2023-05-29T07:22:56;10.98;;;3.60;;
41903;SDS011;27586;51.124;4.182;2023-05-29T07:25:22;7.93;;;2.63;;
41903;SDS011;27586;51.124;4.182;2023-05-29T07:27:48;9.52;;;2.78;;
41903;SDS011;27586;51.124;4.182;2023-05-29T07:30:13;8.35;;;2.97;;
41903;SDS011;27586;51.124;4.182;2023-05-29T07:32:39;10.45;;;2.88;;
41903;SDS011;27586;51.124;4.182;2023-05-29T07:35:05;9.43;;;2.63;;
41903;SDS011;27586;51.124;4.182;2023-05-29T07:37:31;10.25;;;2.80;;
41903;SDS011;27586;51.124;4.182;2023-05-29T07:39:57;9.20;;;3.35;;
41903;SDS011;27586;51.124;4.182;2023-05-29T07:42:22;6.65;;;3.20;;
41903;SDS011;27586;51.124;4.182;2023-05-29T07:44:48;10.30;;;3.05;;
41903;SDS011;27586;51.124;4.182;2023-05-29T07:47:14;9.40;;;3.42;;
41903;SDS011;27586;51.124;4.182;2023-05-29T07:49:40;10.50;;;3.38;;
41903;SDS011;27586;51.124;4.182;2023-05-29T07:52:05;6.90;;;2.65;;
41903;SDS011;27586;51.124;4.182;2023-05-29T07:54:31;8.32;;;2.80;;
41903;SDS011;27586;51.124;4.182;2023-05-29T07:57:00;10.55;;;3.03;;
41903;SDS011;27586;51.124;4.182;2023-05-29T07:59:28;8.30;;;2.85;;
41903;SDS011;27586;51.124;4.182;2023-05-29T08:01:54;10.55;;;2.60;;
41903;SDS011;27586;51.124;4.182;2023-05-29T08:04:23;9.05;;;2.85;;
41903;SDS011;27586;51.124;4.182;2023-05-29T08:06:50;6.40;;;2.88;;
41903;SDS011;27586;51.124;4.182;2023-05-29T08:09:15;10.05;;;3.20;;
41903;SDS011;27586;51.124;4.182;2023-05-29T08:11:42;7.50;;;2.88;;
41903;SDS011;27586;51.124;4.182;2023-05-29T08:14:10;8.45;;;2.90;;
41903;SDS011;27586;51.124;4.182;2023-05-29T08:16:36;11.13;;;3.00;;
41903;SDS011;27586;51.124;4.182;2023-05-29T08:19:02;6.20;;;2.58;;
41903;SDS011;27586;51.124;4.182;2023-05-29T08:21:29;9.52;;;3.17;;
41903;SDS011;27586;51.124;4.182;2023-05-29T08:23:55;7.70;;;2.85;;
41903;SDS011;27586;51.124;4.182;2023-05-29T08:26:20;9.48;;;2.95;;
41903;SDS011;27586;51.124;4.182;2023-05-29T08:28:46;10.68;;;2.85;;
41903;SDS011;27586;51.124;4.182;2023-05-29T08:31:12;7.15;;;2.58;;
41903;SDS011;27586;51.124;4.182;2023-05-29T08:33:38;13.00;;;3.08;;
41903;SDS011;27586;51.124;4.182;2023-05-29T08:36:03;13.70;;;3.33;;
41903;SDS011;27586;51.124;4.182;2023-05-29T08:38:29;9.40;;;3.15;;
41903;SDS011;27586;51.124;4.182;2023-05-29T08:40:55;10.27;;;2.92;;
41903;SDS011;27586;51.124;4.182;2023-05-29T08:43:23;12.82;;;3.65;;
41903;SDS011;27586;51.124;4.182;2023-05-29T08:45:54;12.32;;;3.75;;
41903;SDS011;27586;51.124;4.182;2023-05-29T08:48:24;10.00;;;3.28;;
41903;SDS011;27586;51.124;4.182;2023-05-29T08:50:50;11.20;;;3.42;;
41903;SDS011;27586;51.124;4.182;2023-05-29T08:53:19;9.10;;;3.05;;
41903;SDS011;27586;51.124;4.182;2023-05-29T08:55:46;6.85;;;3.17;;
41903;SDS011;27586;51.124;4.182;2023-05-29T08:58:16;8.15;;;3.00;;
41903;SDS011;27586;51.124;4.182;2023-05-29T09:00:44;10.77;;;3.25;;
41903;SDS011;27586;51.124;4.182;2023-05-29T09:03:11;10.13;;;3.22;;
41903;SDS011;27586;51.124;4.182;2023-05-29T09:05:39;13.13;;;3.00;;
41903;SDS011;27586;51.124;4.182;2023-05-29T09:08:05;8.52;;;2.88;;
41903;SDS011;27586;51.124;4.182;2023-05-29T09:10:32;8.85;;;2.83;;
41903;SDS011;27586;51.124;4.182;2023-05-29T09:12:58;9.25;;;3.10;;
41903;SDS011;27586;51.124;4.182;2023-05-29T09:15:24;7.40;;;2.95;;
41903;SDS011;27586;51.124;4.182;2023-05-29T09:20:21;10.63;;;3.28;;
41903;SDS011;27586;51.124;4.182;2023-05-29T09:22:56;7.43;;;2.97;;
41903;SDS011;27586;51.124;4.182;2023-05-29T09:25:27;8.75;;;3.03;;
41903;SDS011;27586;51.124;4.182;2023-05-29T09:27:58;14.55;;;4.43;;
41903;SDS011;27586;51.124;4.182;2023-05-29T09:30:31;12.02;;;3.40;;
41903;SDS011;27586;51.124;4.182;2023-05-29T09:33:01;10.80;;;3.20;;
41903;SDS011;27586;51.124;4.182;2023-05-29T09:37:59;9.48;;;2.83;;
41903;SDS011;27586;51.124;4.182;2023-05-29T09:40:26;10.32;;;3.30;;
41903;SDS011;27586;51.124;4.182;2023-05-29T09:42:54;8.88;;;2.85;;
41903;SDS011;27586;51.124;4.182;2023-05-29T09:45:20;8.23;;;2.83;;
41903;SDS011;27586;51.124;4.182;2023-05-29T09:47:47;8.80;;;3.25;;
41903;SDS011;27586;51.124;4.182;2023-05-29T09:50:19;8.95;;;2.80;;
41903;SDS011;27586;51.124;4.182;2023-05-29T09:52:48;9.45;;;3.42;;
41903;SDS011;27586;51.124;4.182;2023-05-29T09:55:17;7.40;;;2.63;;
41903;SDS011;27586;51.124;4.182;2023-05-29T09:57:46;5.93;;;2.35;;
41903;SDS011;27586;51.124;4.182;2023-05-29T10:00:15;10.20;;;2.78;;
41903;SDS011;27586;51.124;4.182;2023-05-29T10:02:42;6.88;;;2.50;;
41903;SDS011;27586;51.124;4.182;2023-05-29T10:05:08;8.98;;;2.70;;
41903;SDS011;27586;51.124;4.182;2023-05-29T10:07:36;7.10;;;2.53;;
41903;SDS011;27586;51.124;4.182;2023-05-29T10:10:03;9.35;;;3.13;;
41903;SDS011;27586;51.124;4.182;2023-05-29T10:12:41;8.70;;;2.70;;
41903;SDS011;27586;51.124;4.182;2023-05-29T10:15:12;7.45;;;2.60;;
41903;SDS011;27586;51.124;4.182;2023-05-29T10:17:39;9.95;;;2.97;;
41903;SDS011;27586;51.124;4.182;2023-05-29T10:20:29;7.45;;;2.70;;
41903;SDS011;27586;51.124;4.182;2023-05-29T10:22:56;7.18;;;3.05;;
41903;SDS011;27586;51.124;4.182;2023-05-29T10:25:28;8.60;;;3.10;;
41903;SDS011;27586;51.124;4.182;2023-05-29T10:27:59;8.60;;;3.03;;
41903;SDS011;27586;51.124;4.182;2023-05-29T10:30:36;6.57;;;2.95;;
41903;SDS011;27586;51.124;4.182;2023-05-29T10:33:21;9.68;;;2.92;;
41903;SDS011;27586;51.124;4.182;2023-05-29T10:36:07;8.15;;;3.20;;
41903;SDS011;27586;51.124;4.182;2023-05-29T10:38:44;12.10;;;3.08;;
41903;SDS011;27586;51.124;4.182;2023-05-29T10:43:53;7.70;;;3.13;;
41903;SDS011;27586;51.124;4.182;2023-05-29T10:46:19;7.93;;;3.25;;
41903;SDS011;27586;51.124;4.182;2023-05-29T10:48:46;4.28;;;2.40;;
41903;SDS011;27586;51.124;4.182;2023-05-29T10:51:27;10.52;;;3.00;;
41903;SDS011;27586;51.124;4.182;2023-05-29T10:53:54;7.97;;;2.58;;
41903;SDS011;27586;51.124;4.182;2023-05-29T10:56:23;7.78;;;2.80;;
41903;SDS011;27586;51.124;4.182;2023-05-29T10:58:54;6.70;;;2.55;;
41903;SDS011;27586;51.124;4.182;2023-05-29T11:01:26;8.40;;;2.63;;
41903;SDS011;27586;51.124;4.182;2023-05-29T11:06:50;8.65;;;3.03;;
41903;SDS011;27586;51.124;4.182;2023-05-29T11:09:26;7.90;;;2.80;;
41903;SDS011;27586;51.124;4.182;2023-05-29T11:12:11;8.05;;;2.70;;
41903;SDS011;27586;51.124;4.182;2023-05-29T11:15:05;9.55;;;3.03;;
41903;SDS011;27586;51.124;4.182;2023-05-29T11:20:08;10.57;;;3.15;;
41903;SDS011;27586;51.124;4.182;2023-05-29T11:25:27;10.13;;;3.15;;
41903;SDS011;27586;51.124;4.182;2023-05-29T11:27:53;9.43;;;2.80;;
41903;SDS011;27586;51.124;4.182;2023-05-29T11:30:22;8.35;;;2.63;;
41903;SDS011;27586;51.124;4.182;2023-05-29T11:32:48;9.93;;;2.72;;
41903;SDS011;27586;51.124;4.182;2023-05-29T11:35:14;12.05;;;2.65;;
41903;SDS011;27586;51.124;4.182;2023-05-29T11:37:42;9.10;;;2.88;;
41903;SDS011;27586;51.124;4.182;2023-05-29T11:40:11;8.48;;;2.70;;
41903;SDS011;27586;51.124;4.182;2023-05-29T11:42:41;11.50;;;3.45;;
41903;SDS011;27586;51.124;4.182;2023-05-29T11:45:16;10.88;;;2.88;;
41903;SDS011;27586;51.124;4.182;2023-05-29T11:47:56;8.48;;;2.88;;
41903;SDS011;27586;51.124;4.182;2023-05-29T11:50:30;8.00;;;2.65;;
41903;SDS011;27586;51.124;4.182;2023-05-29T11:52:57;7.35;;;2.53;;
41903;SDS011;27586;51.124;4.182;2023-05-29T11:55:23;8.70;;;3.03;;
41903;SDS011;27586;51.124;4.182;2023-05-29T11:57:50;7.38;;;2.83;;
41903;SDS011;27586;51.124;4.182;2023-05-29T12:00:20;10.48;;;2.92;;
41903;SDS011;27586;51.124;4.182;2023-05-29T12:02:47;7.55;;;2.78;;
41903;SDS011;27586;51.124;4.182;2023-05-29T12:05:13;8.73;;;2.90;;
41903;SDS011;27586;51.124;4.182;2023-05-29T12:07:51;8.07;;;2.70;;
41903;SDS011;27586;51.124;4.182;2023-05-29T12:10:19;7.63;;;2.58;;
41903;SDS011;27586;51.124;4.182;2023-05-29T12:13:07;7.32;;;2.60;;
41903;SDS011;27586;51.124;4.182;2023-05-29T12:15:32;8.05;;;2.90;;
41903;SDS011;27586;51.124;4.182;2023-05-29T12:17:57;6.07;;;2.40;;
41903;SDS011;27586;51.124;4.182;2023-05-29T12:20:25;12.45;;;2.60;;
41903;SDS011;27586;51.124;4.182;2023-05-29T12:22:51;11.13;;;3.40;;
41903;SDS011;27586;51.124;4.182;2023-05-29T12:25:19;10.13;;;2.97;;
41903;SDS011;27586;51.124;4.182;2023-05-29T12:27:46;10.20;;;3.05;;
41903;SDS011;27586;51.124;4.182;2023-05-29T12:30:13;9.93;;;3.55;;
41903;SDS011;27586;51.124;4.182;2023-05-29T12:32:43;11.23;;;3.10;;
41903;SDS011;27586;51.124;4.182;2023-05-29T12:35:17;7.68;;;2.88;;
41903;SDS011;27586;51.124;4.182;2023-05-29T12:37:53;6.95;;;2.60;;
41903;SDS011;27586;51.124;4.182;2023-05-29T12:40:21;7.63;;;2.78;;
41903;SDS011;27586;51.124;4.182;2023-05-29T12:42:54;8.48;;;3.15;;
41903;SDS011;27586;51.124;4.182;2023-05-29T12:45:24;7.70;;;2.65;;
41903;SDS011;27586;51.124;4.182;2023-05-29T12:50:21;9.02;;;2.88;;
41903;SDS011;27586;51.124;4.182;2023-05-29T12:55:27;6.72;;;3.03;;
41903;SDS011;27586;51.124;4.182;2023-05-29T12:57:54;6.95;;;2.72;;
41903;SDS011;27586;51.124;4.182;2023-05-29T13:00:20;7.68;;;2.97;;
41903;SDS011;27586;51.124;4.182;2023-05-29T13:02:47;7.78;;;2.88;;
41903;SDS011;27586;51.124;4.182;2023-05-29T13:05:14;5.15;;;2.65;;
41903;SDS011;27586;51.124;4.182;2023-05-29T13:07:41;6.50;;;2.60;;
41903;SDS011;27586;51.124;4.182;2023-05-29T13:10:07;7.72;;;3.00;;
41903;SDS011;27586;51.124;4.182;2023-05-29T13:12:36;9.23;;;2.63;;
41903;SDS011;27586;51.124;4.182;2023-05-29T13:15:02;8.40;;;2.55;;
41903;SDS011;27586;51.124;4.182;2023-05-29T13:17:28;7.28;;;3.00;;
41903;SDS011;27586;51.124;4.182;2023-05-29T13:19:53;11.40;;;3.08;;
41903;SDS011;27586;51.124;4.182;2023-05-29T13:22:19;6.65;;;2.80;;
41903;SDS011;27586;51.124;4.182;2023-05-29T13:24:45;6.80;;;2.67;;
41903;SDS011;27586;51.124;4.182;2023-05-29T13:27:11;6.30;;;2.70;;
41903;SDS011;27586;51.124;4.182;2023-05-29T13:29:41;7.05;;;2.65;;
41903;SDS011;27586;51.124;4.182;2023-05-29T13:32:07;6.70;;;2.88;;
41903;SDS011;27586;51.124;4.182;2023-05-29T13:34:33;6.35;;;2.70;;
41903;SDS011;27586;51.124;4.182;2023-05-29T13:37:00;5.47;;;2.80;;
41903;SDS011;27586;51.124;4.182;2023-05-29T13:39:27;4.95;;;2.42;;
41903;SDS011;27586;51.124;4.182;2023-05-29T13:41:53;7.97;;;2.75;;
41903;SDS011;27586;51.124;4.182;2023-05-29T13:44:19;7.57;;;3.00;;
41903;SDS011;27586;51.124;4.182;2023-05-29T13:46:45;6.88;;;2.80;;
41903;SDS011;27586;51.124;4.182;2023-05-29T13:49:10;9.18;;;2.70;;
41903;SDS011;27586;51.124;4.182;2023-05-29T13:51:36;8.57;;;2.47;;
41903;SDS011;27586;51.124;4.182;2023-05-29T13:54:02;7.05;;;2.22;;
41903;SDS011;27586;51.124;4.182;2023-05-29T13:56:29;6.65;;;2.63;;
41903;SDS011;27586;51.124;4.182;2023-05-29T13:58:55;7.32;;;2.42;;
41903;SDS011;27586;51.124;4.182;2023-05-29T14:01:24;6.78;;;2.45;;
41903;SDS011;27586;51.124;4.182;2023-05-29T14:03:50;4.78;;;2.22;;
41903;SDS011;27586;51.124;4.182;2023-05-29T14:06:15;7.63;;;2.50;;
41903;SDS011;27586;51.124;4.182;2023-05-29T14:08:41;8.52;;;2.58;;
41903;SDS011;27586;51.124;4.182;2023-05-29T14:11:07;8.13;;;2.53;;
41903;SDS011;27586;51.124;4.182;2023-05-29T14:13:33;6.70;;;2.58;;
41903;SDS011;27586;51.124;4.182;2023-05-29T14:15:58;8.48;;;2.72;;
41903;SDS011;27586;51.124;4.182;2023-05-29T14:18:24;7.18;;;2.47;;
41903;SDS011;27586;51.124;4.182;2023-05-29T14:20:50;5.30;;;2.05;;
41903;SDS011;27586;51.124;4.182;2023-05-29T14:23:18;5.97;;;2.30;;
41903;SDS011;27586;51.124;4.182;2023-05-29T14:25:44;5.72;;;2.30;;
41903;SDS011;27586;51.124;4.182;2023-05-29T14:28:10;4.97;;;2.08;;
41903;SDS011;27586;51.124;4.182;2023-05-29T14:30:36;5.07;;;2.30;;
41903;SDS011;27586;51.124;4.182;2023-05-29T14:33:02;7.05;;;2.17;;
41903;SDS011;27586;51.124;4.182;2023-05-29T14:35:28;6.97;;;2.10;;
41903;SDS011;27586;51.124;4.182;2023-05-29T14:37:55;6.05;;;2.53;;
41903;SDS011;27586;51.124;4.182;2023-05-29T14:40:21;5.40;;;2.00;;
41903;SDS011;27586;51.124;4.182;2023-05-29T14:42:46;6.45;;;2.10;;
41903;SDS011;27586;51.124;4.182;2023-05-29T14:45:12;7.40;;;2.80;;
41903;SDS011;27586;51.124;4.182;2023-05-29T14:47:39;6.40;;;2.55;;
41903;SDS011;27586;51.124;4.182;2023-05-29T14:50:05;6.45;;;2.38;;
41903;SDS011;27586;51.124;4.182;2023-05-29T14:52:31;7.10;;;2.55;;
41903;SDS011;27586;51.124;4.182;2023-05-29T14:54:57;4.47;;;1.88;;
41903;SDS011;27586;51.124;4.182;2023-05-29T14:57:22;4.53;;;2.42;;
41903;SDS011;27586;51.124;4.182;2023-05-29T14:59:48;5.03;;;2.10;;
41903;SDS011;27586;51.124;4.182;2023-05-29T15:02:15;7.80;;;2.63;;
41903;SDS011;27586;51.124;4.182;2023-05-29T15:04:41;5.60;;;2.25;;
41903;SDS011;27586;51.124;4.182;2023-05-29T15:07:06;6.05;;;2.35;;
41903;SDS011;27586;51.124;4.182;2023-05-29T15:09:32;6.25;;;2.40;;